createdAt,value
2022-07-28T00:03:33.126Z,100370.53
2022-07-28T00:04:21.327Z,100375.19
2022-07-28T00:05:07.240Z,100381.69
2022-07-28T00:06:02.666Z,100377.16
2022-07-28T00:06:54.631Z,100378.72
2022-07-28T00:07:54.595Z,100367.16
2022-07-28T00:10:20.563Z,100374.63
2022-07-28T00:15:06.668Z,100363.63
2022-07-28T00:15:45.065Z,100366.31
2022-07-28T00:17:25.677Z,100368.00
2022-07-28T00:18:18.700Z,100365.34
2022-07-28T00:19:04.605Z,100365.19
2022-07-28T00:19:56.052Z,100357.16
2022-07-28T00:20:55.295Z,100361.63
2022-07-28T00:22:56.614Z,100361.09
2022-07-28T00:24:53.034Z,100360.41
2022-07-28T00:25:50.152Z,100362.41
2022-07-28T00:26:38.280Z,100359.59
2022-07-28T00:27:25.720Z,100365.09
2022-07-28T00:28:21.417Z,100354.53
2022-07-28T00:29:21.013Z,100355.34
2022-07-28T00:30:22.426Z,100361.41
2022-07-28T00:32:20.254Z,100357.75
2022-07-28T00:35:08.745Z,100356.19
2022-07-28T00:40:39.281Z,100352.81
2022-07-28T00:41:16.057Z,100354.66
2022-07-28T00:41:47.364Z,100351.13
2022-07-28T00:42:19.110Z,100352.81
2022-07-28T00:42:50.440Z,100349.31
2022-07-28T00:43:23.712Z,100350.28
2022-07-28T00:43:55.023Z,100350.16
2022-07-28T00:44:26.321Z,100350.84
2022-07-28T00:44:57.638Z,100348.88
2022-07-28T00:45:28.940Z,100348.88
2022-07-28T00:46:00.244Z,100347.03
2022-07-28T00:46:31.622Z,100344.19
2022-07-28T00:47:03.172Z,100351.56
2022-07-28T00:47:34.568Z,100345.47
2022-07-28T00:50:43.973Z,100347.19
2022-07-28T00:51:36.522Z,100344.66
2022-07-28T00:52:29.550Z,100341.00
2022-07-28T00:53:30.061Z,100343.81
2022-07-28T00:54:27.462Z,100342.94
2022-07-28T00:56:24.980Z,100342.13
2022-07-28T00:57:03.621Z,100342.25
2022-07-28T00:57:42.427Z,100339.59
2022-07-28T00:58:20.253Z,100342.41
2022-07-28T00:58:58.666Z,100334.38
2022-07-28T00:59:36.722Z,100344.09
2022-07-28T01:00:13.914Z,100337.59
2022-07-28T01:00:53.227Z,100335.78
2022-07-28T01:01:31.943Z,100339.44
2022-07-28T01:02:10.193Z,100335.78
2022-07-28T01:02:48.899Z,100337.59
2022-07-28T01:03:27.274Z,100337.59
2022-07-28T01:04:05.178Z,100334.91
2022-07-28T01:04:46.523Z,100332.38
2022-07-28T01:05:44.069Z,100334.22
2022-07-28T01:06:23.431Z,100338.75
2022-07-28T01:07:13.473Z,100335.06
2022-07-28T01:07:58.112Z,100337.75
2022-07-28T01:08:40.872Z,100333.41
2022-07-28T01:09:21.466Z,100334.38
2022-07-28T01:10:11.672Z,100331.84
2022-07-28T01:11:15.574Z,100333.69
2022-07-28T01:11:53.699Z,100336.06
2022-07-28T01:12:34.822Z,100337.06
2022-07-28T01:13:27.870Z,100334.38
2022-07-28T01:14:14.200Z,100337.31
2022-07-28T01:14:53.247Z,100335.38
2022-07-28T01:15:33.766Z,100343.28
2022-07-28T01:16:12.071Z,100337.06
2022-07-28T01:16:59.241Z,100335.06
2022-07-28T01:17:44.076Z,100339.59
2022-07-28T01:18:32.571Z,100340.59
2022-07-28T01:19:25.783Z,100339.59
2022-07-28T01:20:06.263Z,100338.59
2022-07-28T01:20:44.484Z,100333.41
2022-07-28T01:21:22.069Z,100340.41
2022-07-28T01:21:59.076Z,100338.75
2022-07-28T01:22:36.979Z,100331.69
2022-07-28T01:23:26.878Z,100329.16
2022-07-28T01:24:15.052Z,100329.44
2022-07-28T01:24:50.001Z,100333.13
2022-07-28T01:25:26.770Z,100341.00
2022-07-28T01:26:20.627Z,100330.31
2022-07-28T01:27:11.861Z,100334.53
2022-07-28T01:27:51.953Z,100335.38
2022-07-28T01:28:45.744Z,100337.19
2022-07-28T01:29:44.697Z,100337.06
2022-07-28T01:30:22.613Z,100335.38
2022-07-28T01:31:05.696Z,100337.06
2022-07-28T01:31:47.172Z,100333.41
2022-07-28T01:32:28.330Z,100332.56
2022-07-28T01:33:11.162Z,100330.72
2022-07-28T01:33:53.281Z,100328.88
2022-07-28T01:34:42.906Z,100324.53
2022-07-28T01:35:19.558Z,100322.69
2022-07-28T01:36:04.876Z,100324.34
2022-07-28T01:36:54.149Z,100329.72
2022-07-28T01:37:32.083Z,100324.69
2022-07-28T01:38:15.051Z,100319.34
2022-07-28T01:39:04.497Z,100322.00
2022-07-28T01:39:52.593Z,100321.25
2022-07-28T01:40:29.282Z,100324.69
2022-07-28T01:41:06.168Z,100323.00
2022-07-28T01:41:42.807Z,100326.59
2022-07-28T01:42:19.793Z,100329.44
2022-07-28T01:42:57.311Z,100325.78
2022-07-28T01:43:35.565Z,100328.34
2022-07-28T01:44:14.514Z,100318.59
2022-07-28T01:44:53.480Z,100327.34
2022-07-28T01:45:31.761Z,100322.84
2022-07-28T01:46:10.367Z,100326.34
2022-07-28T01:46:48.532Z,100319.34
2022-07-28T01:47:26.740Z,100322.84
2022-07-28T01:48:05.541Z,100323.66
2022-07-28T01:48:43.717Z,100323.81
2022-07-28T01:49:22.374Z,100316.66
2022-07-28T01:50:00.322Z,100322.69
2022-07-28T01:50:37.951Z,100320.69
2022-07-28T01:51:15.999Z,100313.81
2022-07-28T01:51:55.495Z,100318.16
2022-07-28T01:52:37.408Z,100313.09
2022-07-28T01:53:20.130Z,100310.69
2022-07-28T01:54:04.730Z,100313.22
2022-07-28T01:54:57.341Z,100317.91
2022-07-28T01:55:35.507Z,100319.59
2022-07-28T01:56:12.241Z,100312.53
2022-07-28T01:56:49.572Z,100314.25
2022-07-28T01:57:26.973Z,100314.53
2022-07-28T01:58:04.367Z,100310.69
2022-07-28T01:58:41.826Z,100311.31
2022-07-28T01:59:19.359Z,100316.75
2022-07-28T01:59:57.150Z,100316.66
2022-07-28T02:00:34.932Z,100315.78
2022-07-28T02:01:12.731Z,100311.16
2022-07-28T02:01:50.601Z,100311.97
2022-07-28T02:02:27.951Z,100316.31
2022-07-28T02:03:05.983Z,100311.16
2022-07-28T02:03:43.946Z,100314.09
2022-07-28T02:04:21.353Z,100319.34
2022-07-28T02:04:59.232Z,100320.31
2022-07-28T02:05:36.399Z,100315.63
2022-07-28T02:06:13.741Z,100318.47
2022-07-28T02:06:51.209Z,100314.09
2022-07-28T02:07:28.548Z,100313.97
2022-07-28T02:08:05.601Z,100303.28
2022-07-28T02:08:43.194Z,100301.56
2022-07-28T02:09:21.473Z,100310.44
2022-07-28T02:10:03.375Z,100314.81
2022-07-28T02:10:44.858Z,100313.09
2022-07-28T02:11:26.089Z,100314.81
2022-07-28T02:12:08.733Z,100310.28
2022-07-28T02:12:49.330Z,100308.63
2022-07-28T02:13:30.618Z,100307.88
2022-07-28T02:14:09.330Z,100310.44
2022-07-28T02:14:46.833Z,100307.75
2022-07-28T02:15:28.363Z,100303.28
2022-07-28T02:16:09.987Z,100305.19
2022-07-28T02:16:53.956Z,100310.69
2022-07-28T02:17:38.436Z,100305.63
2022-07-28T02:18:23.574Z,100308.16
2022-07-28T02:19:03.214Z,100312.53
2022-07-28T02:19:39.861Z,100312.69
2022-07-28T02:20:17.733Z,100308.31
2022-07-28T02:20:54.549Z,100305.63
2022-07-28T02:21:31.616Z,100305.50
2022-07-28T02:22:08.463Z,100302.97
2022-07-28T02:22:45.637Z,100308.31
2022-07-28T02:23:27.954Z,100305.50
2022-07-28T02:24:04.909Z,100307.88
2022-07-28T02:24:41.722Z,100305.34
2022-07-28T02:25:19.117Z,100308.88
2022-07-28T02:25:56.404Z,100312.00
2022-07-28T02:26:37.207Z,100310.16
2022-07-28T02:27:18.150Z,100310.00
2022-07-28T02:28:05.606Z,100306.34
2022-07-28T02:28:51.602Z,100309.72
2022-07-28T02:29:49.669Z,100307.03
2022-07-28T02:30:36.957Z,100311.56
2022-07-28T02:31:16.056Z,100310.69
2022-07-28T02:31:53.608Z,100303.69
2022-07-28T02:32:48.705Z,100311.56
2022-07-28T02:33:58.379Z,100305.50
2022-07-28T02:34:27.777Z,100301.84
2022-07-28T02:35:20.398Z,100302.66
2022-07-28T02:35:59.723Z,100301.84
2022-07-28T02:36:41.359Z,100301.00
2022-07-28T02:37:17.875Z,100301.84
2022-07-28T02:38:07.753Z,100293.81
2022-07-28T02:38:44.689Z,100297.31
2022-07-28T02:39:24.001Z,100290.28
2022-07-28T02:40:01.425Z,100300.13
2022-07-28T02:40:39.250Z,100295.66
2022-07-28T02:41:33.087Z,100296.47
2022-07-28T02:42:12.299Z,100293.13
2022-07-28T02:42:49.694Z,100298.47
2022-07-28T02:43:49.560Z,100295.78
2022-07-28T02:44:32.680Z,100286.91
2022-07-28T02:45:17.158Z,100287.63
2022-07-28T02:45:55.956Z,100292.97
2022-07-28T02:46:36.038Z,100286.75
2022-07-28T02:47:13.362Z,100288.44
2022-07-28T02:47:51.420Z,100293.81
2022-07-28T02:48:28.552Z,100289.13
2022-07-28T02:49:05.997Z,100290.16
2022-07-28T02:49:43.742Z,100288.44
2022-07-28T02:50:21.283Z,100292.09
2022-07-28T02:50:59.331Z,100296.47
2022-07-28T02:51:36.743Z,100296.47
2022-07-28T02:52:15.239Z,100298.19
2022-07-28T02:52:53.208Z,100291.13
2022-07-28T02:53:30.627Z,100290.28
2022-07-28T02:54:07.236Z,100290.16
2022-07-28T02:54:44.548Z,100297.31
2022-07-28T02:55:21.295Z,100290.28
2022-07-28T02:55:58.314Z,100286.91
2022-07-28T02:56:35.712Z,100292.97
2022-07-28T02:57:13.822Z,100293.13
2022-07-28T02:57:56.521Z,100293.13
2022-07-28T02:58:33.666Z,100287.91
2022-07-28T02:59:11.175Z,100282.41
2022-07-28T02:59:48.716Z,100283.41
2022-07-28T03:00:26.381Z,100280.72
2022-07-28T03:01:03.908Z,100283.25
2022-07-28T03:01:41.483Z,100287.75
2022-07-28T03:02:19.741Z,100285.09
2022-07-28T03:02:57.382Z,100281.72
2022-07-28T03:03:35.069Z,100285.91
2022-07-28T03:04:12.992Z,100284.94
2022-07-28T03:04:50.318Z,100285.78
2022-07-28T03:05:27.775Z,100283.09
2022-07-28T03:06:07.140Z,100288.44
2022-07-28T03:06:46.243Z,100290.16
2022-07-28T03:07:27.672Z,100291.13
2022-07-28T03:08:10.530Z,100283.41
2022-07-28T03:08:54.725Z,100291.41
2022-07-28T03:09:41.793Z,100293.13
2022-07-28T03:10:34.108Z,100294.94
2022-07-28T03:11:11.311Z,100302.13
2022-07-28T03:11:55.073Z,100294.25
2022-07-28T03:12:32.862Z,100300.47
2022-07-28T03:13:10.429Z,100298.75
2022-07-28T03:13:47.731Z,100296.91
2022-07-28T03:14:25.943Z,100301.44
2022-07-28T03:15:03.872Z,100293.41
2022-07-28T03:15:41.593Z,100296.78
2022-07-28T03:16:20.289Z,100292.44
2022-07-28T03:16:59.775Z,100298.75
2022-07-28T03:17:42.907Z,100290.59
2022-07-28T03:18:25.865Z,100293.41
2022-07-28T03:19:13.587Z,100287.09
2022-07-28T03:20:02.206Z,100290.75
2022-07-28T03:20:47.643Z,100291.41
2022-07-28T03:21:24.724Z,100290.44
2022-07-28T03:22:02.130Z,100292.44
2022-07-28T03:22:39.975Z,100295.09
2022-07-28T03:23:19.424Z,100292.25
2022-07-28T03:23:56.538Z,100286.91
2022-07-28T03:24:34.638Z,100290.44
2022-07-28T03:25:14.664Z,100286.59
2022-07-28T03:25:53.965Z,100286.75
2022-07-28T03:26:35.801Z,100289.56
2022-07-28T03:27:32.253Z,100284.41
2022-07-28T03:28:20.768Z,100281.53
2022-07-28T03:28:59.618Z,100282.56
2022-07-28T03:29:36.849Z,100279.06
2022-07-28T03:30:21.089Z,100277.19
2022-07-28T03:31:00.357Z,100279.06
2022-07-28T03:31:39.588Z,100281.72
2022-07-28T03:32:16.609Z,100287.91
2022-07-28T03:32:54.847Z,100281.72
2022-07-28T03:33:31.773Z,100285.91
2022-07-28T03:34:10.106Z,100283.25
2022-07-28T03:34:47.238Z,100281.53
2022-07-28T03:35:24.566Z,100285.91
2022-07-28T03:36:03.704Z,100276.03
2022-07-28T03:36:42.570Z,100280.56
2022-07-28T03:37:19.857Z,100287.75
2022-07-28T03:37:57.278Z,100286.06
2022-07-28T03:38:37.696Z,100280.88
2022-07-28T03:39:15.554Z,100289.19
2022-07-28T03:39:54.826Z,100280.03
2022-07-28T03:40:32.408Z,100286.38
2022-07-28T03:41:11.493Z,100286.38
2022-07-28T03:41:51.247Z,100288.06
2022-07-28T03:42:28.945Z,100288.06
2022-07-28T03:43:06.808Z,100287.09
2022-07-28T03:43:44.381Z,100286.38
2022-07-28T03:44:27.704Z,100288.06
2022-07-28T03:45:08.083Z,100294.25
2022-07-28T03:45:48.048Z,100291.56
2022-07-28T03:46:38.795Z,100295.09
2022-07-28T03:47:20.174Z,100296.47
2022-07-28T03:48:15.715Z,100290.97
2022-07-28T03:48:57.695Z,100291.13
2022-07-28T03:50:10.062Z,100297.47
2022-07-28T03:50:55.030Z,100300.84
2022-07-28T03:51:32.400Z,100300.84
2022-07-28T03:52:10.472Z,100294.50
2022-07-28T03:52:48.467Z,100287.47
2022-07-28T03:53:27.284Z,100293.94
2022-07-28T03:54:05.480Z,100301.28
2022-07-28T03:54:42.676Z,100296.09
2022-07-28T03:55:19.814Z,100301.44
2022-07-28T03:55:57.602Z,100297.06
2022-07-28T03:56:36.031Z,100298.75
2022-07-28T03:57:13.997Z,100300.47
2022-07-28T03:57:52.173Z,100295.94
2022-07-28T03:58:29.930Z,100298.63
2022-07-28T03:59:07.969Z,100298.75
2022-07-28T03:59:47.689Z,100300.47
2022-07-28T04:00:25.981Z,100297.06
2022-07-28T04:01:04.968Z,100296.09
2022-07-28T04:01:42.871Z,100299.59
2022-07-28T04:02:21.333Z,100293.13
2022-07-28T04:03:03.443Z,100297.59
2022-07-28T04:03:45.123Z,100292.97
2022-07-28T04:04:39.363Z,100301.84
2022-07-28T04:05:16.217Z,100289.28
2022-07-28T04:05:53.680Z,100296.47
2022-07-28T04:06:32.018Z,100291.97
2022-07-28T04:07:08.681Z,100294.78
2022-07-28T04:07:46.110Z,100287.75
2022-07-28T04:08:22.869Z,100291.41
2022-07-28T04:08:59.988Z,100289.03
2022-07-28T04:09:37.360Z,100292.59
2022-07-28T04:10:14.663Z,100284.56
2022-07-28T04:10:52.624Z,100291.72
2022-07-28T04:11:30.639Z,100294.41
2022-07-28T04:12:11.567Z,100300.47
2022-07-28T04:12:52.553Z,100294.25
2022-07-28T04:13:32.345Z,100297.94
2022-07-28T04:14:16.189Z,100297.78
2022-07-28T04:14:54.847Z,100302.13
2022-07-28T04:15:37.152Z,100298.75
2022-07-28T04:16:17.435Z,100304.13
2022-07-28T04:16:59.468Z,100300.47
2022-07-28T04:18:06.050Z,100296.78
2022-07-28T04:18:43.239Z,100299.44
2022-07-28T04:19:20.269Z,100299.31
2022-07-28T04:19:57.401Z,100294.78
2022-07-28T04:20:35.079Z,100299.00
2022-07-28T04:21:12.355Z,100294.78
2022-07-28T04:21:51.192Z,100297.31
2022-07-28T04:22:29.497Z,100301.84
2022-07-28T04:23:06.444Z,100289.28
2022-07-28T04:23:43.842Z,100291.97
2022-07-28T04:24:21.219Z,100289.28
2022-07-28T04:24:59.115Z,100292.81
2022-07-28T04:25:37.020Z,100285.91
2022-07-28T04:26:16.549Z,100298.47
2022-07-28T04:26:54.177Z,100298.47
2022-07-28T04:27:33.397Z,100292.44
2022-07-28T04:28:11.588Z,100295.25
2022-07-28T04:28:50.075Z,100296.25
2022-07-28T04:29:28.336Z,100290.06
2022-07-28T04:30:07.181Z,100299.75
2022-07-28T04:30:44.889Z,100289.03
2022-07-28T04:31:23.306Z,100291.72
2022-07-28T04:32:01.129Z,100290.06
2022-07-28T04:32:40.649Z,100295.41
2022-07-28T04:33:19.551Z,100295.41
2022-07-28T04:33:57.093Z,100292.59
2022-07-28T04:34:34.679Z,100293.41
2022-07-28T04:35:17.121Z,100289.91
2022-07-28T04:36:02.215Z,100292.59
2022-07-28T04:36:49.147Z,100288.88
2022-07-28T04:37:36.360Z,100288.06
2022-07-28T04:38:13.476Z,100293.56
2022-07-28T04:38:50.476Z,100293.72
2022-07-28T04:39:27.499Z,100291.88
2022-07-28T04:40:04.629Z,100303.44
2022-07-28T04:40:42.268Z,100292.72
2022-07-28T04:41:19.389Z,100294.53
2022-07-28T04:41:56.608Z,100295.41
2022-07-28T04:42:33.632Z,100296.38
2022-07-28T04:43:10.646Z,100296.38
2022-07-28T04:43:47.926Z,100290.06
2022-07-28T04:44:24.918Z,100295.41
2022-07-28T04:45:01.966Z,100294.53
2022-07-28T04:45:39.009Z,100296.38
2022-07-28T04:46:23.911Z,100297.06
2022-07-28T04:47:01.751Z,100294.25
2022-07-28T04:47:43.518Z,100296.91
2022-07-28T04:48:21.357Z,100301.28
2022-07-28T04:48:58.950Z,100296.91
2022-07-28T04:49:36.872Z,100289.91
2022-07-28T04:50:14.897Z,100295.94
2022-07-28T04:50:53.328Z,100288.06
2022-07-28T04:51:31.368Z,100288.06
2022-07-28T04:52:10.431Z,100283.69
2022-07-28T04:52:50.369Z,100296.25
2022-07-28T04:53:39.644Z,100291.03
2022-07-28T04:54:17.392Z,100282.16
2022-07-28T04:55:02.319Z,100286.66
2022-07-28T04:55:39.746Z,100284.28
2022-07-28T04:56:19.158Z,100293.03
2022-07-28T04:56:57.688Z,100292.00
2022-07-28T04:57:35.479Z,100292.00
2022-07-28T04:58:13.512Z,100287.53
2022-07-28T04:58:52.179Z,100290.88
2022-07-28T04:59:29.831Z,100283.00
2022-07-28T05:00:08.138Z,100287.22
2022-07-28T05:00:45.054Z,100291.72
2022-07-28T05:01:22.397Z,100293.56
2022-07-28T05:02:00.443Z,100289.75
2022-07-28T05:02:38.372Z,100291.72
2022-07-28T05:03:16.537Z,100289.03
2022-07-28T05:03:59.558Z,100292.72
2022-07-28T05:04:45.274Z,100290.88
2022-07-28T05:05:31.313Z,100292.59
2022-07-28T05:06:11.882Z,100294.25
2022-07-28T05:06:49.804Z,100296.25
2022-07-28T05:07:28.481Z,100292.59
2022-07-28T05:08:05.542Z,100297.06
2022-07-28T05:08:43.297Z,100300.75
2022-07-28T05:09:20.357Z,100300.91
2022-07-28T05:09:58.548Z,100295.69
2022-07-28T05:10:36.154Z,100297.66
2022-07-28T05:11:13.548Z,100292.31
2022-07-28T05:11:51.278Z,100286.94
2022-07-28T05:12:29.117Z,100299.34
2022-07-28T05:13:09.275Z,100294.84
2022-07-28T05:13:46.485Z,100295.69
2022-07-28T05:14:24.190Z,100292.00
2022-07-28T05:15:02.066Z,100293.56
2022-07-28T05:15:39.959Z,100297.06
2022-07-28T05:16:18.153Z,100290.06
2022-07-28T05:16:55.790Z,100291.72
2022-07-28T05:17:33.578Z,100297.06
2022-07-28T05:18:11.532Z,100295.41
2022-07-28T05:18:49.212Z,100299.06
2022-07-28T05:19:27.064Z,100292.00
2022-07-28T05:20:04.757Z,100290.06
2022-07-28T05:20:42.574Z,100292.72
2022-07-28T05:21:22.406Z,100292.72
2022-07-28T05:22:00.456Z,100288.34
2022-07-28T05:22:45.451Z,100290.06
2022-07-28T05:23:33.916Z,100288.34
2022-07-28T05:24:24.976Z,100289.19
2022-07-28T05:25:02.389Z,100293.03
2022-07-28T05:25:39.816Z,100294.84
2022-07-28T05:26:17.725Z,100293.31
2022-07-28T05:26:54.882Z,100300.50
2022-07-28T05:27:33.133Z,100298.66
2022-07-28T05:28:10.653Z,100292.47
2022-07-28T05:28:47.555Z,100294.84
2022-07-28T05:29:24.842Z,100292.00
2022-07-28T05:30:11.699Z,100287.66
2022-07-28T05:30:48.988Z,100282.03
2022-07-28T05:31:27.052Z,100286.38
2022-07-28T05:32:15.579Z,100288.06
2022-07-28T05:32:58.701Z,100284.69
2022-07-28T05:33:41.440Z,100287.38
2022-07-28T05:34:33.713Z,100291.88
2022-07-28T05:35:11.188Z,100289.03
2022-07-28T05:36:03.514Z,100290.75
2022-07-28T05:36:48.066Z,100287.53
2022-07-28T05:37:25.587Z,100286.50
2022-07-28T05:38:06.408Z,100288.34
2022-07-28T05:38:46.891Z,100289.19
2022-07-28T05:39:24.716Z,100290.34
2022-07-28T05:40:01.857Z,100293.84
2022-07-28T05:40:39.042Z,100287.66
2022-07-28T05:41:16.092Z,100292.00
2022-07-28T05:41:53.260Z,100291.03
2022-07-28T05:42:31.226Z,100288.50
2022-07-28T05:43:08.611Z,100288.34
2022-07-28T05:43:46.587Z,100292.00
2022-07-28T05:44:25.160Z,100288.34
2022-07-28T05:45:02.814Z,100283.97
2022-07-28T05:45:40.681Z,100283.97
2022-07-28T05:46:18.427Z,100290.06
2022-07-28T05:46:56.056Z,100282.16
2022-07-28T05:47:34.893Z,100289.34
2022-07-28T05:48:13.090Z,100283.16
2022-07-28T05:48:50.604Z,100281.31
2022-07-28T05:49:28.955Z,100283.16
2022-07-28T05:50:07.487Z,100285.00
2022-07-28T05:50:47.820Z,100286.81
2022-07-28T05:51:24.875Z,100281.31
2022-07-28T05:52:01.949Z,100283.28
2022-07-28T05:52:40.797Z,100279.78
2022-07-28T05:53:18.597Z,100289.34
2022-07-28T05:53:56.511Z,100279.78
2022-07-28T05:54:33.955Z,100277.94
2022-07-28T05:55:11.112Z,100280.47
2022-07-28T05:55:59.830Z,100277.94
2022-07-28T05:56:45.872Z,100282.47
2022-07-28T05:57:33.893Z,100285.97
2022-07-28T05:58:13.307Z,100275.28
2022-07-28T05:58:50.434Z,100283.00
2022-07-28T05:59:28.160Z,100286.66
2022-07-28T06:00:05.099Z,100282.16
2022-07-28T06:00:42.309Z,100282.16
2022-07-28T06:01:19.508Z,100277.66
2022-07-28T06:01:57.039Z,100277.66
2022-07-28T06:02:36.850Z,100284.69
2022-07-28T06:03:14.160Z,100283.00
2022-07-28T06:04:03.650Z,100281.00
2022-07-28T06:04:49.366Z,100276.66
2022-07-28T06:05:27.154Z,100281.00
2022-07-28T06:06:15.653Z,100285.38
2022-07-28T06:06:55.872Z,100285.53
2022-07-28T06:07:42.626Z,100282.03
2022-07-28T06:08:20.618Z,100281.00
2022-07-28T06:08:58.592Z,100289.91
2022-07-28T06:09:35.499Z,100283.84
2022-07-28T06:10:13.507Z,100291.72
2022-07-28T06:10:50.771Z,100290.06
2022-07-28T06:11:28.001Z,100288.34
2022-07-28T06:12:04.975Z,100296.38
2022-07-28T06:12:51.243Z,100291.03
2022-07-28T06:13:31.899Z,100296.25
2022-07-28T06:14:16.944Z,100286.38
2022-07-28T06:14:53.809Z,100295.25
2022-07-28T06:15:31.097Z,100295.25
2022-07-28T06:16:12.942Z,100294.25
2022-07-28T06:16:49.415Z,100294.09
2022-07-28T06:17:27.185Z,100293.13
2022-07-28T06:18:05.909Z,100295.78
2022-07-28T06:18:43.012Z,100288.88
2022-07-28T06:19:20.485Z,100294.41
2022-07-28T06:19:58.673Z,100292.59
2022-07-28T06:20:35.707Z,100291.72
2022-07-28T06:21:13.026Z,100291.41
2022-07-28T06:21:50.826Z,100291.41
2022-07-28T06:22:28.791Z,100291.72
2022-07-28T06:23:07.561Z,100295.09
2022-07-28T06:23:47.212Z,100288.06
2022-07-28T06:24:24.393Z,100290.88
2022-07-28T06:25:02.237Z,100286.66
2022-07-28T06:25:39.382Z,100292.88
2022-07-28T06:26:18.240Z,100293.56
2022-07-28T06:26:58.260Z,100293.41
2022-07-28T06:27:40.316Z,100291.88
2022-07-28T06:28:21.290Z,100292.59
2022-07-28T06:29:01.643Z,100292.44
2022-07-28T06:29:40.498Z,100287.75
2022-07-28T06:30:19.136Z,100291.41
2022-07-28T06:30:55.893Z,100294.94
2022-07-28T06:31:33.016Z,100286.22
2022-07-28T06:32:12.791Z,100291.28
2022-07-28T06:32:55.197Z,100286.06
2022-07-28T06:33:39.948Z,100287.75
2022-07-28T06:34:24.102Z,100282.72
2022-07-28T06:35:05.594Z,100283.69
2022-07-28T06:35:51.051Z,100284.06
2022-07-28T06:36:32.408Z,100284.06
2022-07-28T06:37:14.162Z,100278.03
2022-07-28T06:37:55.196Z,100288.88
2022-07-28T06:38:37.321Z,100288.06
2022-07-28T06:39:16.440Z,100278.72
2022-07-28T06:39:54.018Z,100285.22
2022-07-28T06:40:31.507Z,100279.19
2022-07-28T06:41:09.858Z,100283.69
2022-07-28T06:42:02.349Z,100278.19
2022-07-28T06:42:48.081Z,100274.69
2022-07-28T06:43:39.309Z,100272.00
2022-07-28T06:44:54.887Z,100280.03
2022-07-28T06:45:39.103Z,100279.59
2022-07-28T06:46:28.033Z,100282.94
2022-07-28T06:47:16.564Z,100276.63
2022-07-28T06:48:03.207Z,100279.19
2022-07-28T06:48:58.774Z,100281.84
2022-07-28T06:49:50.889Z,100284.94
2022-07-28T06:50:41.233Z,100283.66
2022-07-28T06:51:31.756Z,100280.00
2022-07-28T06:52:20.229Z,100279.84
2022-07-28T06:53:16.034Z,100284.38
2022-07-28T06:54:11.115Z,100279.84
2022-07-28T06:54:59.143Z,100279.84
2022-07-28T06:55:49.994Z,100287.47
2022-07-28T06:56:40.516Z,100278.56
2022-07-28T06:57:33.624Z,100276.75
2022-07-28T06:58:28.302Z,100283.78
2022-07-28T06:59:18.215Z,100279.72
2022-07-28T07:00:06.738Z,100280.16
2022-07-28T07:00:55.059Z,100282.38
2022-07-28T07:01:43.939Z,100278.16
2022-07-28T07:02:35.564Z,100282.53
2022-07-28T07:03:31.741Z,100273.66
2022-07-28T07:04:24.313Z,100276.16
2022-07-28T07:05:12.836Z,100280.25
2022-07-28T07:06:04.708Z,100277.56
2022-07-28T07:06:57.746Z,100281.78
2022-07-28T07:07:49.939Z,100279.72
2022-07-28T07:08:45.412Z,100278.31
2022-07-28T07:09:38.065Z,100276.50
2022-07-28T07:10:27.983Z,100279.28
2022-07-28T07:11:20.596Z,100281.09
2022-07-28T07:12:09.473Z,100272.25
2022-07-28T07:13:01.024Z,100273.94
2022-07-28T07:14:02.579Z,100273.81
2022-07-28T07:14:52.722Z,100269.84
2022-07-28T07:15:41.423Z,100270.94
2022-07-28T07:16:31.741Z,100275.28
2022-07-28T07:17:23.472Z,100271.91
2022-07-28T07:18:16.617Z,100279.78
2022-07-28T07:19:15.644Z,100282.31
2022-07-28T07:20:04.149Z,100279.50
2022-07-28T07:21:52.841Z,100275.88
2022-07-28T07:22:42.592Z,100274.44
2022-07-28T07:23:38.196Z,100278.25
2022-07-28T07:24:31.429Z,100275.56
2022-07-28T07:25:26.729Z,100275.41
2022-07-28T07:26:20.946Z,100276.88
2022-07-28T07:27:13.294Z,100275.88
2022-07-28T07:28:07.128Z,100271.81
2022-07-28T07:29:00.050Z,100271.00
2022-07-28T07:29:58.413Z,100271.91
2022-07-28T07:30:50.837Z,100274.88
2022-07-28T07:31:44.695Z,100271.22
2022-07-28T07:32:37.317Z,100271.09
2022-07-28T07:33:34.750Z,100265.88
2022-07-28T07:34:26.320Z,100270.94
2022-07-28T07:35:22.753Z,100280.63
2022-07-28T07:36:14.133Z,100272.59
2022-07-28T07:37:09.501Z,100274.44
2022-07-28T07:38:05.962Z,100271.63
2022-07-28T07:40:04.316Z,100274.59
2022-07-28T07:42:51.666Z,100264.88
2022-07-28T07:43:59.080Z,100264.88
2022-07-28T07:44:58.517Z,100267.25
2022-07-28T07:46:59.972Z,100262.56
2022-07-28T07:48:00.789Z,100264.13
2022-07-28T07:48:59.227Z,100260.91
2022-07-28T07:49:55.645Z,100265.09
2022-07-28T07:50:53.605Z,100259.59
2022-07-28T08:07:27.387Z,100250.88
2022-07-28T08:08:00.427Z,100245.66
2022-07-28T08:08:38.577Z,100248.50
2022-07-28T08:09:13.518Z,100247.81
2022-07-28T08:09:45.529Z,100245.13
2022-07-28T08:10:17.672Z,100247.13
2022-07-28T08:10:50.467Z,100242.75
2022-07-28T08:11:23.515Z,100238.38
2022-07-28T08:11:58.259Z,100248.13
2022-07-28T08:12:31.353Z,100243.44
2022-07-28T08:13:05.524Z,100240.16
2022-07-28T08:13:42.329Z,100242.16
2022-07-28T08:14:17.576Z,100241.88
2022-07-28T08:14:55.265Z,100244.25
2022-07-28T08:15:28.784Z,100246.06
2022-07-28T08:16:05.767Z,100247.28
2022-07-28T08:16:43.654Z,100241.56
2022-07-28T10:32:03.751Z,100172.38
2022-07-28T10:32:41.015Z,100173.88
2022-07-28T10:33:16.133Z,100171.78
2022-07-28T10:33:49.492Z,100178.78
2022-07-28T10:34:27.499Z,100174.13
2022-07-28T10:35:04.686Z,100170.59
2022-07-28T10:35:45.209Z,100167.59
2022-07-28T10:36:29.150Z,100176.41
2022-07-28T10:37:03.758Z,100177.13
2022-07-28T10:37:44.032Z,100176.72
2022-07-28T12:42:20.590Z,100073.81
2022-07-28T12:42:54.769Z,100079.84
2022-07-28T12:43:27.828Z,100075.34
2022-07-28T12:44:01.934Z,100077.00
2022-07-28T12:55:01.011Z,100073.44
2022-07-28T12:55:32.516Z,100072.44
2022-07-28T12:56:03.999Z,100076.94
2022-07-28T12:56:44.972Z,100077.63
2022-07-28T12:57:16.426Z,100076.13
2022-07-28T12:57:51.240Z,100070.44
2022-07-28T12:58:23.727Z,100072.97
2022-07-28T12:59:05.339Z,100073.81
2022-07-28T12:59:37.021Z,100067.31
2022-07-28T13:00:08.671Z,100066.59
2022-07-28T13:00:40.173Z,100065.91
2022-07-28T13:01:11.727Z,100068.59
2022-07-28T13:01:46.716Z,100071.94
2022-07-28T13:02:18.258Z,100063.09
2022-07-28T13:02:50.330Z,100061.25
2022-07-28T13:03:25.857Z,100061.56
2022-07-28T13:03:57.314Z,100065.09
2022-07-28T13:04:47.680Z,100058.72
2022-07-28T13:05:37.975Z,100061.09
2022-07-28T13:06:09.969Z,100058.88
2022-07-28T13:06:41.430Z,100060.41
2022-07-28T13:07:23.497Z,100062.25
2022-07-28T13:08:02.122Z,100052.84